Time;durP1;ratioP1;P1;durP2;ratioP2;P2;SDS_P1;SDS_P2;PMS_P1;PMS_P2;Temp;Humidity;BMP_temperature;BMP_pressure;BME280_temperature;BME280_humidity;BME280_pressure;Samples;Min_cycle;Max_cycle;Signal;HPM_P1;HPM_P2
2021/10/15 00:01:33;;;;;;;4.38;3.85;;;6.90;99.90;;;;;;6161817;23;20005;-78
2021/10/15 00:03:59;;;;;;;5.72;3.67;;;6.90;99.90;;;;;;6186761;23;19993;-78
2021/10/15 00:06:25;;;;;;;5.00;4.20;;;6.80;99.90;;;;;;6186373;23;20005;-79
2021/10/15 00:08:50;;;;;;;4.32;3.92;;;6.80;99.90;;;;;;6187173;23;20009;-78
2021/10/15 00:11:16;;;;;;;4.30;3.00;;;6.80;99.90;;;;;;6186894;23;20329;-77
2021/10/15 00:13:42;;;;;;;5.03;3.47;;;6.80;99.90;;;;;;6158973;23;20027;-79
2021/10/15 00:16:08;;;;;;;5.40;3.78;;;6.80;99.90;;;;;;6186062;23;20013;-79
2021/10/15 00:18:34;;;;;;;4.05;2.97;;;6.80;99.90;;;;;;6186177;23;20350;-76
2021/10/15 00:20:59;;;;;;;4.72;3.22;;;6.70;99.90;;;;;;6186092;23;20001;-76
2021/10/15 00:23:25;;;;;;;4.30;3.63;;;6.70;99.90;;;;;;6185848;23;20009;-77
2021/10/15 00:25:51;;;;;;;4.90;3.85;;;6.60;99.90;;;;;;6188230;23;20016;-77
2021/10/15 00:28:17;;;;;;;3.90;3.22;;;6.60;99.90;;;;;;6188218;23;20075;-78
2021/10/15 00:30:43;;;;;;;4.70;3.53;;;6.60;99.90;;;;;;6189066;23;20080;-80
2021/10/15 00:33:09;;;;;;;5.00;3.42;;;6.60;99.90;;;;;;6190233;23;20337;-78
2021/10/15 00:35:35;;;;;;;3.80;3.20;;;6.60;99.90;;;;;;6160224;23;20087;-77
2021/10/15 00:38:01;;;;;;;3.95;3.15;;;6.50;99.90;;;;;;6186204;23;20452;-76
2021/10/15 00:40:26;;;;;;;4.20;3.20;;;6.50;99.90;;;;;;6186628;23;20001;-76
2021/10/15 00:42:52;;;;;;;3.50;2.78;;;6.50;99.90;;;;;;6186093;23;20051;-76
2021/10/15 00:45:18;;;;;;;7.13;3.50;;;6.40;99.90;;;;;;6186184;23;20032;-75
2021/10/15 00:47:44;;;;;;;3.60;2.97;;;6.40;99.90;;;;;;6185840;23;20072;-78
2021/10/15 00:50:10;;;;;;;3.28;2.42;;;6.40;99.90;;;;;;6185445;23;19997;-77
2021/10/15 00:52:37;;;;;;;3.42;2.70;;;6.30;99.90;;;;;;6185059;23;20135;-77
2021/10/15 00:55:03;;;;;;;3.47;2.85;;;6.20;99.90;;;;;;6185277;23;20045;-75
2021/10/15 00:57:29;;;;;;;4.32;2.70;;;6.20;99.90;;;;;;6186008;23;20001;-77
2021/10/15 00:59:55;;;;;;;3.33;2.83;;;6.20;99.90;;;;;;6159153;23;20001;-77
2021/10/15 01:02:21;;;;;;;3.00;2.38;;;6.20;99.90;;;;;;6184404;23;19997;-76
2021/10/15 01:04:48;;;;;;;6.25;2.90;;;6.20;99.90;;;;;;6185436;23;20004;-78
2021/10/15 01:07:15;;;;;;;3.45;2.72;;;6.10;99.90;;;;;;6183977;23;20013;-78
2021/10/15 01:09:41;;;;;;;3.75;2.85;;;6.10;99.90;;;;;;6158954;23;20009;-74
2021/10/15 01:12:07;;;;;;;3.95;3.00;;;6.10;99.90;;;;;;6159129;23;20341;-77
2021/10/15 01:14:33;;;;;;;3.25;2.90;;;6.10;99.90;;;;;;6158607;23;20005;-76
2021/10/15 01:17:04;;;;;;;2.75;2.40;;;6.10;99.90;;;;;;6186482;23;20005;-78
2021/10/15 01:19:31;;;;;;;2.58;1.67;;;6.10;99.90;;;;;;6184664;23;20079;-77
2021/10/15 01:22:05;;;;;;;2.63;2.42;;;6.00;99.90;;;;;;6185275;23;20001;-77
2021/10/15 01:24:32;;;;;;;4.57;2.45;;;5.90;99.90;;;;;;6185143;23;20028;-78
2021/10/15 01:27:06;;;;;;;2.65;1.85;;;5.80;99.90;;;;;;6185371;23;20079;-77
2021/10/15 01:29:33;;;;;;;2.53;2.30;;;5.70;99.90;;;;;;6184821;23;20001;-77
2021/10/15 01:31:58;;;;;;;2.63;1.83;;;5.70;99.90;;;;;;6185369;23;20062;-79
2021/10/15 01:34:25;;;;;;;3.05;2.47;;;5.60;99.90;;;;;;6185788;23;20005;-80
2021/10/15 01:36:51;;;;;;;3.33;2.22;;;5.60;99.90;;;;;;6186035;23;20042;-76
2021/10/15 01:39:16;;;;;;;4.13;2.20;;;5.50;99.90;;;;;;6185852;23;19997;-77
2021/10/15 01:41:42;;;;;;;2.78;1.90;;;5.50;99.90;;;;;;6185552;23;20076;-76
2021/10/15 01:44:08;;;;;;;3.15;2.10;;;5.50;99.90;;;;;;6185177;23;20021;-75
2021/10/15 01:46:34;;;;;;;2.63;2.13;;;5.40;99.90;;;;;;6184263;23;20135;-75
2021/10/15 01:49:00;;;;;;;4.13;2.15;;;5.40;99.90;;;;;;6185517;23;20019;-77
2021/10/15 01:51:25;;;;;;;2.38;2.00;;;5.40;99.90;;;;;;6185606;23;20052;-78
2021/10/15 01:53:51;;;;;;;3.50;2.50;;;5.40;99.90;;;;;;6186351;23;20036;-77
2021/10/15 01:56:17;;;;;;;2.20;1.83;;;5.30;99.90;;;;;;6185322;23;20009;-76
2021/10/15 01:58:43;;;;;;;2.50;2.10;;;5.40;99.90;;;;;;6185888;23;20001;-76
2021/10/15 02:01:09;;;;;;;3.28;2.22;;;5.40;99.90;;;;;;6184437;23;20039;-77
2021/10/15 02:03:35;;;;;;;3.42;2.10;;;5.40;99.90;;;;;;6184740;23;19998;-78
2021/10/15 02:06:00;;;;;;;4.22;2.35;;;5.30;99.90;;;;;;6185445;23;20064;-76
2021/10/15 02:08:26;;;;;;;3.17;1.85;;;5.30;99.90;;;;;;6185085;23;19997;-78
2021/10/15 02:10:52;;;;;;;2.30;1.70;;;5.30;99.90;;;;;;6186182;23;20436;-77
2021/10/15 02:13:18;;;;;;;3.03;2.15;;;5.30;99.90;;;;;;6185691;23;19998;-76
2021/10/15 02:15:44;;;;;;;2.53;1.98;;;5.30;99.90;;;;;;6185295;23;20097;-76
2021/10/15 02:18:09;;;;;;;2.90;2.33;;;5.30;99.90;;;;;;6158915;23;20001;-78
2021/10/15 02:20:35;;;;;;;4.85;2.72;;;5.30;99.90;;;;;;6186266;23;20009;-78
2021/10/15 02:23:02;;;;;;;3.88;2.38;;;5.30;99.90;;;;;;6185223;23;20028;-79
2021/10/15 02:25:29;;;;;;;2.83;2.17;;;5.30;99.90;;;;;;6185203;23;20056;-78
2021/10/15 02:27:55;;;;;;;4.03;2.35;;;5.30;99.90;;;;;;6184872;23;20424;-78
2021/10/15 02:30:21;;;;;;;2.78;2.25;;;5.40;99.90;;;;;;6158795;23;20005;-75
2021/10/15 02:32:48;;;;;;;2.85;2.55;;;5.40;99.90;;;;;;6185081;23;20005;-79
2021/10/15 02:35:15;;;;;;;4.47;2.38;;;5.40;99.90;;;;;;6184892;23;20013;-77
2021/10/15 02:37:42;;;;;;;4.18;2.78;;;5.30;99.90;;;;;;6185655;23;20012;-77
2021/10/15 02:40:09;;;;;;;3.28;2.50;;;5.30;99.90;;;;;;6158402;23;20088;-77
2021/10/15 02:42:35;;;;;;;3.92;3.00;;;5.30;99.90;;;;;;6187003;23;20348;-75
2021/10/15 02:45:01;;;;;;;4.90;3.58;;;5.30;99.90;;;;;;6185866;23;20072;-79
2021/10/15 02:47:26;;;;;;;5.13;2.80;;;5.30;99.90;;;;;;6186479;23;20430;-81
2021/10/15 02:49:52;;;;;;;4.93;4.43;;;5.30;99.90;;;;;;6187876;23;20049;-81
2021/10/15 02:52:18;;;;;;;4.70;3.92;;;5.30;99.90;;;;;;6161305;23;20012;-83
2021/10/15 02:54:44;;;;;;;5.50;4.00;;;5.30;99.90;;;;;;6186669;23;19997;-76
2021/10/15 02:57:10;;;;;;;5.03;4.03;;;5.30;99.90;;;;;;6186630;23;20432;-79
2021/10/15 02:59:36;;;;;;;5.05;4.22;;;5.30;99.90;;;;;;6186577;23;20331;-80
2021/10/15 03:02:02;;;;;;;6.30;4.57;;;5.30;99.90;;;;;;6160821;23;20032;-76
2021/10/15 03:04:28;;;;;;;5.25;4.07;;;5.30;99.90;;;;;;6187842;23;20380;-76
2021/10/15 03:06:54;;;;;;;7.38;4.60;;;5.40;99.90;;;;;;6160604;23;20009;-75
2021/10/15 03:09:19;;;;;;;7.72;5.55;;;5.30;99.90;;;;;;6186935;23;20372;-75
2021/10/15 03:11:45;;;;;;;5.80;4.32;;;5.30;99.90;;;;;;6186199;23;20007;-76
2021/10/15 03:14:11;;;;;;;5.68;4.13;;;5.30;99.90;;;;;;6186591;23;20060;-76
2021/10/15 03:16:37;;;;;;;6.20;4.68;;;5.30;99.90;;;;;;6186699;23;20012;-77
2021/10/15 03:19:03;;;;;;;6.13;4.55;;;5.30;99.90;;;;;;6160022;23;20001;-78
2021/10/15 03:21:28;;;;;;;6.18;4.70;;;5.30;99.90;;;;;;6185476;23;20126;-77
2021/10/15 03:23:54;;;;;;;7.03;4.57;;;5.30;99.90;;;;;;6185817;23;20005;-76
2021/10/15 03:26:20;;;;;;;5.60;4.38;;;5.30;99.90;;;;;;6186595;23;20005;-75
2021/10/15 03:28:46;;;;;;;5.97;4.38;;;5.30;99.90;;;;;;6160060;23;20044;-75
2021/10/15 03:31:12;;;;;;;7.93;4.82;;;5.30;99.90;;;;;;6186163;23;20001;-75
2021/10/15 03:33:37;;;;;;;6.03;5.38;;;5.40;99.90;;;;;;6186165;23;20001;-76
2021/10/15 03:36:04;;;;;;;6.53;5.13;;;5.40;99.90;;;;;;6186020;23;20013;-76
2021/10/15 03:38:30;;;;;;;8.05;5.72;;;5.40;99.90;;;;;;6185783;23;20005;-76
2021/10/15 03:40:55;;;;;;;6.85;4.75;;;5.40;99.90;;;;;;6185435;23;20005;-74
2021/10/15 03:43:21;;;;;;;7.15;6.03;;;5.40;99.90;;;;;;6186260;23;19997;-74
2021/10/15 03:45:47;;;;;;;6.75;5.82;;;5.40;99.90;;;;;;6159536;23;20008;-77
2021/10/15 03:48:13;;;;;;;6.90;6.20;;;5.40;99.90;;;;;;6186680;23;20001;-76
2021/10/15 03:50:39;;;;;;;7.82;6.10;;;5.30;99.90;;;;;;6186485;23;20072;-75
2021/10/15 03:53:04;;;;;;;6.20;5.60;;;5.30;99.90;;;;;;6185664;23;20072;-74
2021/10/15 03:55:30;;;;;;;9.50;6.50;;;5.30;99.90;;;;;;6186389;23;20078;-77
2021/10/15 03:57:56;;;;;;;9.30;6.90;;;5.30;99.90;;;;;;6159639;23;20439;-75
2021/10/15 04:00:22;;;;;;;8.65;5.15;;;5.30;99.90;;;;;;6185581;23;20064;-75
2021/10/15 04:02:48;;;;;;;8.45;5.82;;;5.30;99.90;;;;;;6185804;23;20021;-75
2021/10/15 04:05:15;;;;;;;9.65;7.95;;;5.30;99.90;;;;;;6185506;23;20001;-76
2021/10/15 04:07:41;;;;;;;10.43;6.38;;;5.30;99.90;;;;;;6184858;23;20360;-76
2021/10/15 04:10:08;;;;;;;9.07;6.82;;;5.30;99.90;;;;;;6185771;23;20009;-75
2021/10/15 04:12:34;;;;;;;8.65;6.60;;;5.30;99.90;;;;;;6159156;23;20389;-75
2021/10/15 04:15:00;;;;;;;7.25;5.75;;;5.30;99.90;;;;;;6185772;23;20017;-74
2021/10/15 04:17:26;;;;;;;7.47;6.20;;;5.30;99.90;;;;;;6185557;23;20332;-75
2021/10/15 04:19:52;;;;;;;9.23;5.70;;;5.30;99.90;;;;;;6185473;23;20005;-73
2021/10/15 04:22:18;;;;;;;8.90;6.85;;;5.30;99.90;;;;;;6185439;23;20031;-74
2021/10/15 04:24:44;;;;;;;7.70;6.30;;;5.40;99.90;;;;;;6185155;23;20071;-75
2021/10/15 04:27:10;;;;;;;7.72;6.30;;;5.40;99.90;;;;;;6185354;23;20008;-75
2021/10/15 04:29:39;;;;;;;7.07;5.78;;;5.40;99.90;;;;;;6184568;23;20389;-77
2021/10/15 04:32:05;;;;;;;10.45;6.80;;;5.40;99.90;;;;;;6185324;23;20001;-74
2021/10/15 04:34:31;;;;;;;8.35;5.70;;;5.40;99.90;;;;;;6185448;23;20007;-75
2021/10/15 04:36:56;;;;;;;9.27;6.90;;;5.40;99.90;;;;;;6185236;23;20079;-75
2021/10/15 04:39:24;;;;;;;8.00;6.13;;;5.30;99.90;;;;;;6185780;23;19997;-75
2021/10/15 04:41:49;;;;;;;4.47;3.45;;;5.30;99.90;;;;;;6184377;23;20032;-75
2021/10/15 04:44:15;;;;;;;12.32;7.05;;;5.30;99.90;;;;;;6185164;23;20293;-74
2021/10/15 04:46:41;;;;;;;11.05;7.15;;;5.30;99.90;;;;;;6185478;23;20437;-76
2021/10/15 04:49:07;;;;;;;9.40;6.85;;;5.30;99.90;;;;;;6185300;23;19997;-74
2021/10/15 04:51:33;;;;;;;9.68;6.97;;;5.30;99.90;;;;;;6185409;23;20001;-74
2021/10/15 04:53:58;;;;;;;8.77;6.63;;;5.30;99.90;;;;;;6185276;23;20001;-76
2021/10/15 04:56:24;;;;;;;8.30;6.43;;;5.30;99.90;;;;;;6185347;23;20063;-75
2021/10/15 04:58:50;;;;;;;8.80;6.15;;;5.30;99.90;;;;;;6185312;23;20337;-76
2021/10/15 05:01:16;;;;;;;10.68;6.63;;;5.30;99.90;;;;;;6186976;23;20004;-75
2021/10/15 05:03:42;;;;;;;6.75;5.68;;;5.30;99.90;;;;;;6185197;23;20008;-75
2021/10/15 05:06:08;;;;;;;7.38;6.28;;;5.30;99.90;;;;;;6185491;23;20036;-75
2021/10/15 05:08:43;;;;;;;11.13;5.68;;;5.30;99.90;;;;;;6185442;23;20001;-75
2021/10/15 05:11:09;;;;;;;11.98;5.82;;;5.40;99.90;;;;;;6185734;23;20001;-74
2021/10/15 05:13:35;;;;;;;7.07;5.25;;;5.40;99.90;;;;;;6185114;23;20009;-77
2021/10/15 05:16:01;;;;;;;10.30;6.07;;;5.40;99.90;;;;;;6185887;23;20012;-75
2021/10/15 05:18:27;;;;;;;9.43;6.60;;;5.40;99.90;;;;;;6185085;23;19997;-75
2021/10/15 05:20:53;;;;;;;7.90;5.55;;;5.30;99.90;;;;;;6185176;23;20032;-75
2021/10/15 05:23:18;;;;;;;8.10;6.07;;;5.40;99.90;;;;;;6185514;23;20008;-75
2021/10/15 05:25:44;;;;;;;7.55;4.85;;;5.40;99.90;;;;;;6159008;23;20005;-75
2021/10/15 05:28:10;;;;;;;8.07;5.38;;;5.40;99.90;;;;;;6185760;23;20047;-74
2021/10/15 05:30:36;;;;;;;6.93;5.22;;;5.40;99.90;;;;;;6184799;23;20455;-75
2021/10/15 05:33:02;;;;;;;7.30;5.75;;;5.40;99.90;;;;;;6184707;23;20026;-74
2021/10/15 05:35:28;;;;;;;8.30;5.65;;;5.40;99.90;;;;;;6184779;23;20012;-75
2021/10/15 05:37:53;;;;;;;7.10;6.20;;;5.50;99.90;;;;;;6158693;23;20001;-76
2021/10/15 05:40:19;;;;;;;8.93;6.57;;;5.60;99.90;;;;;;6184677;23;20005;-75
2021/10/15 05:42:47;;;;;;;8.55;6.47;;;5.70;99.90;;;;;;6184578;23;20066;-75
2021/10/15 05:45:15;;;;;;;11.30;6.13;;;5.70;99.90;;;;;;6184773;23;20463;-77
2021/10/15 05:47:40;;;;;;;7.07;5.35;;;5.70;99.90;;;;;;6184692;23;19997;-76
2021/10/15 05:50:08;;;;;;;6.85;5.15;;;5.70;99.90;;;;;;6183393;23;20013;-76
2021/10/15 05:52:41;;;;;;;7.05;6.18;;;5.80;99.90;;;;;;6184844;23;20058;-76
2021/10/15 06:00:10;;;;;;;6.57;5.63;;;5.80;99.90;;;;;;6194795;23;20009;-76
2021/10/15 06:02:39;;;;;;;6.55;5.22;;;5.80;99.90;;;;;;6158842;23;20001;-76
2021/10/15 06:15:39;;;;;;;9.77;5.25;;;6.10;99.90;;;;;;6162476;23;20455;-74
2021/10/15 06:18:13;;;;;;;6.20;4.82;;;6.10;99.60;;;;;;6185612;23;20009;-76
2021/10/15 06:20:39;;;;;;;6.00;4.30;;;6.10;99.30;;;;;;6186070;23;20016;-75
2021/10/15 06:23:06;;;;;;;8.63;5.07;;;6.10;99.30;;;;;;6186486;23;20008;-75
2021/10/15 06:25:32;;;;;;;8.43;4.70;;;6.20;99.20;;;;;;6186632;23;20009;-77
2021/10/15 06:28:01;;;;;;;7.55;5.32;;;6.20;99.00;;;;;;6187072;23;20037;-76
2021/10/15 06:30:28;;;;;;;5.05;4.35;;;6.30;99.00;;;;;;6186341;23;20012;-76
2021/10/15 06:32:54;;;;;;;7.28;4.10;;;6.40;98.80;;;;;;6186663;23;20016;-75
2021/10/15 06:35:20;;;;;;;7.40;4.22;;;6.50;98.70;;;;;;6186577;23;20020;-76
2021/10/15 06:37:46;;;;;;;7.88;4.47;;;6.60;98.60;;;;;;6186291;23;20424;-75
2021/10/15 06:40:12;;;;;;;7.75;4.22;;;6.80;98.20;;;;;;6186564;23;20048;-78
2021/10/15 06:42:40;;;;;;;5.10;3.90;;;6.90;97.70;;;;;;6159884;23;20005;-75
2021/10/15 06:45:06;;;;;;;4.90;3.70;;;6.90;97.40;;;;;;6186351;23;20001;-75
2021/10/15 06:47:32;;;;;;;4.93;4.32;;;6.70;97.00;;;;;;6186188;23;19994;-76
2021/10/15 06:49:59;;;;;;;7.10;4.53;;;6.70;96.80;;;;;;6185572;23;19997;-74
2021/10/15 06:52:25;;;;;;;5.35;4.78;;;6.70;96.60;;;;;;6160156;23;20001;-77
2021/10/15 06:54:51;;;;;;;4.50;3.63;;;6.70;96.40;;;;;;6159519;23;20055;-75
2021/10/15 06:57:19;;;;;;;7.15;4.78;;;6.70;96.40;;;;;;6186525;23;20079;-76
2021/10/15 06:59:45;;;;;;;8.20;3.83;;;6.70;96.10;;;;;;6158600;23;20025;-77
2021/10/15 07:02:14;;;;;;;6.03;3.58;;;6.70;96.00;;;;;;6185986;23;20036;-79
2021/10/15 07:04:39;;;;;;;5.50;4.25;;;6.80;96.00;;;;;;6186262;23;20001;-76
2021/10/15 07:07:05;;;;;;;7.70;5.45;;;6.70;96.10;;;;;;6186293;23;20337;-75
2021/10/15 07:09:31;;;;;;;5.07;4.50;;;6.80;96.80;;;;;;6185423;23;20001;-77
2021/10/15 07:11:57;;;;;;;6.25;4.30;;;6.80;96.70;;;;;;6186145;23;20506;-76
2021/10/15 07:14:26;;;;;;;4.88;3.80;;;6.80;96.00;;;;;;6186265;23;20000;-76
2021/10/15 07:16:52;;;;;;;4.90;3.85;;;6.80;95.70;;;;;;6160085;23;20348;-76
2021/10/15 07:19:18;;;;;;;12.85;5.97;;;6.80;95.30;;;;;;6185955;23;20009;-76
2021/10/15 07:21:44;;;;;;;7.32;3.78;;;6.80;95.60;;;;;;6186167;23;20029;-76
2021/10/15 07:24:09;;;;;;;4.22;3.60;;;7.00;95.70;;;;;;6185698;23;20039;-76
2021/10/15 07:26:37;;;;;;;5.32;3.95;;;7.10;95.10;;;;;;6159200;23;20004;-75
2021/10/15 07:29:06;;;;;;;4.00;3.05;;;7.20;94.80;;;;;;6186059;23;20087;-76
2021/10/15 07:31:33;;;;;;;5.72;2.97;;;7.20;94.30;;;;;;6184915;23;20006;-76
2021/10/15 07:33:59;;;;;;;5.60;3.50;;;7.20;94.00;;;;;;6186095;23;20001;-77
2021/10/15 07:36:25;;;;;;;5.40;3.63;;;7.20;93.90;;;;;;6159495;23;20126;-76
2021/10/15 07:38:50;;;;;;;5.75;3.53;;;7.20;94.10;;;;;;6185902;23;19997;-75
2021/10/15 07:41:17;;;;;;;5.78;3.90;;;7.30;94.10;;;;;;6186008;23;20001;-77
2021/10/15 07:43:47;;;;;;;6.30;3.78;;;7.50;93.90;;;;;;6186144;23;20009;-77
2021/10/15 07:46:13;;;;;;;6.13;3.47;;;7.60;93.20;;;;;;6185215;23;20005;-77
2021/10/15 07:48:39;;;;;;;4.43;3.22;;;7.70;92.90;;;;;;6185834;23;20112;-77
2021/10/15 07:51:05;;;;;;;4.18;3.55;;;7.60;92.50;;;;;;6185967;23;20036;-76
2021/10/15 07:53:30;;;;;;;3.92;3.10;;;7.80;92.70;;;;;;6186365;23;20004;-76
2021/10/15 07:55:56;;;;;;;6.95;3.58;;;8.00;92.10;;;;;;6159170;23;20436;-75
2021/10/15 07:58:22;;;;;;;6.63;3.97;;;8.20;91.90;;;;;;6184894;23;20004;-77
2021/10/15 08:00:48;;;;;;;5.97;3.95;;;8.30;91.20;;;;;;6186069;23;20005;-77
2021/10/15 08:03:14;;;;;;;4.85;2.92;;;8.50;90.90;;;;;;6186359;23;19997;-77
2021/10/15 08:05:40;;;;;;;6.70;3.75;;;8.70;90.20;;;;;;6186483;23;20012;-76
2021/10/15 08:08:06;;;;;;;9.45;3.85;;;8.70;89.90;;;;;;6159288;23;20004;-77
2021/10/15 08:10:31;;;;;;;7.75;3.50;;;8.80;89.70;;;;;;6185749;23;20001;-77
2021/10/15 08:12:57;;;;;;;7.07;3.75;;;9.00;89.50;;;;;;6185894;23;20005;-77
2021/10/15 08:15:24;;;;;;;5.43;3.10;;;8.90;88.00;;;;;;6185167;23;20001;-76
2021/10/15 08:17:50;;;;;;;7.70;4.30;;;8.90;87.40;;;;;;6187305;23;20035;-75
2021/10/15 08:20:19;;;;;;;5.40;3.78;;;8.80;87.80;;;;;;6187350;23;20001;-75
2021/10/15 08:22:46;;;;;;;6.47;4.07;;;8.80;87.90;;;;;;6186009;23;20005;-76
2021/10/15 08:25:11;;;;;;;6.40;3.80;;;8.80;87.80;;;;;;6186611;23;20084;-77
2021/10/15 08:27:37;;;;;;;6.47;4.28;;;8.70;87.80;;;;;;6185528;23;20040;-78
2021/10/15 08:30:04;;;;;;;4.60;3.00;;;8.80;87.90;;;;;;6185683;23;20031;-75
2021/10/15 08:32:30;;;;;;;6.35;3.83;;;8.80;86.80;;;;;;6185250;23;20068;-74
2021/10/15 08:34:56;;;;;;;6.63;3.28;;;8.70;87.50;;;;;;6185791;23;20020;-76
2021/10/15 08:37:21;;;;;;;5.28;3.17;;;8.80;87.80;;;;;;6159550;23;20001;-76
2021/10/15 08:39:48;;;;;;;6.68;3.40;;;9.00;87.00;;;;;;6185808;23;20001;-77
2021/10/15 08:42:14;;;;;;;5.65;3.45;;;9.10;86.80;;;;;;6185689;23;20005;-77
2021/10/15 08:44:45;;;;;;;9.00;3.33;;;9.50;86.30;;;;;;6185495;23;20436;-76
2021/10/15 08:47:16;;;;;;;5.32;2.92;;;9.90;84.40;;;;;;6158724;23;20440;-75
2021/10/15 08:49:44;;;;;;;3.45;2.35;;;10.20;83.20;;;;;;6185277;23;20097;-76
2021/10/15 08:52:15;;;;;;;4.55;2.78;;;10.40;79.70;;;;;;6185274;23;20009;-76
2021/10/15 08:54:45;;;;;;;4.50;2.92;;;10.30;79.90;;;;;;6158889;23;20373;-75
2021/10/15 08:57:13;;;;;;;5.07;2.83;;;10.10;80.70;;;;;;6184291;23;20016;-76
2021/10/15 08:59:42;;;;;;;5.13;3.80;;;10.10;80.90;;;;;;6186336;23;20036;-76
2021/10/15 09:02:16;;;;;;;8.48;4.15;;;10.10;81.10;;;;;;6185650;23;20009;-76
2021/10/15 09:04:44;;;;;;;8.20;4.20;;;10.10;81.10;;;;;;6185557;23;19997;-77
2021/10/15 09:07:11;;;;;;;5.65;3.38;;;10.00;81.80;;;;;;6158863;23;20005;-77
2021/10/15 09:09:37;;;;;;;5.30;3.97;;;10.10;81.50;;;;;;6184690;23;20001;-76
2021/10/15 09:12:11;;;;;;;9.23;4.00;;;10.00;82.00;;;;;;6184375;23;20008;-77
2021/10/15 09:14:38;;;;;;;3.83;3.08;;;10.10;81.90;;;;;;6185440;23;20003;-76
2021/10/15 09:17:05;;;;;;;7.75;3.92;;;10.00;81.70;;;;;;6184985;23;20009;-76
2021/10/15 09:19:40;;;;;;;6.03;3.90;;;9.80;81.90;;;;;;6184721;23;20360;-76
2021/10/15 09:22:06;;;;;;;6.05;4.43;;;9.80;82.80;;;;;;6185226;23;20231;-76
2021/10/15 09:24:38;;;;;;;6.00;4.10;;;10.10;83.00;;;;;;6184306;23;20132;-78
2021/10/15 09:27:16;;;;;;;4.85;3.58;;;10.40;81.80;;;;;;6185072;23;20005;-77
2021/10/15 09:30:17;;;;;;;5.35;3.40;;;10.60;81.30;;;;;;6184520;23;20100;-76
2021/10/15 09:32:51;;;;;;;6.28;3.53;;;10.60;80.70;;;;;;6153186;23;20015;-77
2021/10/15 09:35:19;;;;;;;4.18;3.00;;;10.70;80.10;;;;;;6184622;23;20104;-76
2021/10/15 09:37:47;;;;;;;4.70;3.30;;;10.70;80.20;;;;;;6184770;23;20008;-77
2021/10/15 09:40:19;;;;;;;6.03;3.38;;;10.90;79.80;;;;;;6184858;23;19993;-77
2021/10/15 09:42:50;;;;;;;6.60;3.50;;;11.10;78.90;;;;;;6184849;23;20032;-76
2021/10/15 09:45:22;;;;;;;4.88;3.35;;;11.20;78.90;;;;;;6184909;23;19997;-77
2021/10/15 09:47:55;;;;;;;5.78;3.08;;;11.30;78.80;;;;;;6185079;23;20140;-76
2021/10/15 09:50:27;;;;;;;2.92;2.60;;;11.10;78.10;;;;;;6157913;23;20328;-77
2021/10/15 09:52:56;;;;;;;10.27;3.75;;;10.80;78.20;;;;;;6184933;23;20084;-75
2021/10/15 09:55:39;;;;;;;8.02;3.83;;;10.60;79.10;;;;;;6184413;23;20013;-78
2021/10/15 09:58:19;;;;;;;3.10;2.63;;;10.60;80.50;;;;;;6158014;23;20059;-78
2021/10/15 10:00:48;;;;;;;5.50;2.90;;;10.50;79.90;;;;;;6185104;23;20320;-78
2021/10/15 10:03:18;;;;;;;9.93;2.88;;;10.40;80.80;;;;;;6184598;23;20028;-77
2021/10/15 10:05:44;;;;;;;5.43;3.00;;;10.40;80.40;;;;;;6185592;23;20012;-77
2021/10/15 10:08:11;;;;;;;5.55;4.00;;;10.20;80.10;;;;;;6184665;23;19997;-76
2021/10/15 10:10:39;;;;;;;5.97;3.13;;;10.30;81.30;;;;;;6094029;23;20484;-76
2021/10/15 10:13:06;;;;;;;3.97;2.08;;;10.40;81.60;;;;;;6093643;23;20002;-77
2021/10/15 10:15:35;;;;;;;2.33;2.03;;;10.50;80.80;;;;;;6093195;23;20081;-76
2021/10/15 10:18:01;;;;;;;5.03;2.97;;;10.30;80.00;;;;;;6093621;23;20312;-76
2021/10/15 10:20:30;;;;;;;3.58;2.22;;;10.10;81.30;;;;;;6093749;23;20362;-77
2021/10/15 10:23:18;;;;;;;5.55;2.53;;;10.10;80.90;;;;;;6093717;23;20011;-77
2021/10/15 10:25:45;;;;;;;5.57;3.17;;;9.90;81.40;;;;;;6094408;23;20065;-76
2021/10/15 10:28:20;;;;;;;8.10;2.78;;;9.90;81.20;;;;;;6094997;23;20070;-77
2021/10/15 10:30:52;;;;;;;7.22;4.03;;;9.70;81.30;;;;;;6093617;23;20002;-75
2021/10/15 10:33:19;;;;;;;7.18;4.65;;;9.70;81.80;;;;;;6093680;23;20442;-78
2021/10/15 10:35:45;;;;;;;;;;;9.70;82.20;;;;;;6094247;23;20068;-77
2021/10/15 10:38:20;;;;;;;7.45;4.35;;;9.80;82.60;;;;;;6093582;23;19908;-77
2021/10/15 10:41:19;;;;;;;4.13;3.60;;;10.10;82.70;;;;;;6093403;23;20006;-77
2021/10/15 10:43:44;;;;;;;5.15;3.05;;;10.40;81.90;;;;;;6069373;23;20010;-77
2021/10/15 10:46:16;;;;;;;4.15;3.30;;;10.60;80.00;;;;;;6093568;23;20003;-78
2021/10/15 10:48:51;;;;;;;5.75;3.60;;;10.70;80.20;;;;;;6140084;23;20080;-77
2021/10/15 10:51:19;;;;;;;5.60;3.17;;;10.90;79.50;;;;;;6154903;23;20001;-77
2021/10/15 10:54:11;;;;;;;3.80;3.03;;;10.90;78.60;;;;;;6154231;23;20028;-78
2021/10/15 10:56:39;;;;;;;5.43;3.45;;;10.90;78.20;;;;;;6142340;23;20024;-78
2021/10/15 10:59:21;;;;;;;4.35;2.60;;;10.80;78.30;;;;;;6153289;23;20460;-77
2021/10/15 11:01:51;;;;;;;4.90;2.63;;;10.50;77.00;;;;;;6155421;23;20001;-78
2021/10/15 11:04:36;;;;;;;3.92;2.90;;;10.30;78.20;;;;;;6156306;23;20002;-78
2021/10/15 11:07:05;;;;;;;7.78;4.78;;;10.30;78.50;;;;;;6156180;23;20002;-76
2021/10/15 11:09:43;;;;;;;7.40;2.58;;;10.20;78.40;;;;;;6156198;23;20012;-76
2021/10/15 11:12:13;;;;;;;7.78;3.97;;;10.20;77.20;;;;;;6156031;23;20008;-78
2021/10/15 11:14:53;;;;;;;5.70;3.20;;;10.30;76.70;;;;;;6155710;23;20005;-78
2021/10/15 11:17:30;;;;;;;6.25;4.28;;;10.10;75.00;;;;;;6153709;23;20013;-77
2021/10/15 11:20:36;;;;;;;6.68;3.70;;;10.00;75.10;;;;;;6156408;23;20002;-77
2021/10/15 11:23:06;;;;;;;5.05;3.03;;;9.90;74.70;;;;;;6147496;23;20006;-78
2021/10/15 11:25:39;;;;;;;4.72;2.42;;;9.90;75.50;;;;;;6187396;23;20008;-78
2021/10/15 11:28:07;;;;;;;6.82;3.05;;;10.00;75.20;;;;;;6186745;23;20378;-77
2021/10/15 11:30:37;;;;;;;4.55;2.80;;;10.10;75.20;;;;;;6186017;23;19998;-76
2021/10/15 11:33:06;;;;;;;9.45;5.72;;;10.20;74.80;;;;;;6185856;23;19997;-77
2021/10/15 11:35:40;;;;;;;3.05;2.20;;;10.20;73.00;;;;;;6186134;23;20016;-77
2021/10/15 11:38:18;;;;;;;3.90;2.40;;;10.10;72.20;;;;;;6185970;23;20005;-77
2021/10/15 11:40:50;;;;;;;2.83;2.20;;;10.00;72.60;;;;;;6185882;23;20060;-77
2021/10/15 11:43:22;;;;;;;4.15;2.72;;;9.90;72.50;;;;;;6185692;23;20009;-76
2021/10/15 11:46:00;;;;;;;2.97;2.15;;;9.90;72.40;;;;;;6185805;23;20254;-77
2021/10/15 11:48:34;;;;;;;3.60;2.78;;;9.90;72.50;;;;;;6185564;23;20005;-77
2021/10/15 11:51:07;;;;;;;5.50;3.30;;;9.90;72.60;;;;;;6160140;23;20071;-77
2021/10/15 11:53:41;;;;;;;5.45;2.83;;;9.90;72.50;;;;;;6185612;23;20396;-77
2021/10/15 11:56:09;;;;;;;4.35;2.65;;;10.00;73.00;;;;;;6185617;23;20427;-77
2021/10/15 11:58:37;;;;;;;4.05;2.95;;;10.00;72.90;;;;;;6159249;23;20001;-77
2021/10/15 12:01:08;;;;;;;6.20;3.38;;;10.10;72.10;;;;;;6186047;23;20044;-78
2021/10/15 12:03:51;;;;;;;6.35;3.40;;;10.20;71.40;;;;;;6186403;23;20040;-78
2021/10/15 12:06:28;;;;;;;3.05;1.80;;;10.20;71.50;;;;;;6184966;23;20031;-77
2021/10/15 12:09:17;;;;;;;2.53;1.90;;;10.20;67.60;;;;;;6185590;23;20076;-77
2021/10/15 12:11:46;;;;;;;4.85;2.78;;;10.00;66.30;;;;;;6186098;23;20008;-78
2021/10/15 12:14:29;;;;;;;3.53;1.95;;;9.90;66.70;;;;;;6157446;23;20035;-76
2021/10/15 12:17:01;;;;;;;5.30;2.30;;;9.90;65.60;;;;;;6185621;23;20009;-78
2021/10/15 12:19:35;;;;;;;3.78;2.70;;;9.90;66.50;;;;;;6185296;23;20068;-77
2021/10/15 12:22:16;;;;;;;3.92;2.10;;;9.90;66.70;;;;;;6185331;23;20008;-78
2021/10/15 12:24:44;;;;;;;4.85;3.25;;;10.10;66.40;;;;;;6185461;23;20064;-78
2021/10/15 12:27:24;;;;;;;5.10;3.10;;;10.00;66.40;;;;;;6185525;23;20009;-77
2021/10/15 12:29:53;;;;;;;6.25;2.05;;;10.10;66.60;;;;;;6185188;23;20012;-77
2021/10/15 12:32:30;;;;;;;6.95;3.08;;;10.10;66.20;;;;;;6185269;23;20040;-77
2021/10/15 12:35:03;;;;;;;5.38;2.72;;;10.00;66.20;;;;;;6183982;23;20354;-78
2021/10/15 12:37:59;;;;;;;6.68;2.40;;;10.00;65.90;;;;;;6186069;23;20480;-77
2021/10/15 12:40:29;;;;;;;3.23;2.40;;;10.00;65.90;;;;;;6185191;23;20436;-76
2021/10/15 12:42:55;;;;;;;4.38;2.25;;;9.90;66.00;;;;;;6184917;23;20265;-78
2021/10/15 12:45:23;;;;;;;4.95;2.63;;;9.80;66.10;;;;;;6185619;23;20005;-78
2021/10/15 12:48:16;;;;;;;6.72;1.90;;;9.80;67.20;;;;;;6185304;23;20001;-77
2021/10/15 12:51:04;;;;;;;6.70;2.20;;;9.80;67.20;;;;;;6158882;23;20027;-75
2021/10/15 12:53:45;;;;;;;5.28;2.67;;;9.80;67.70;;;;;;6158581;23;20005;-76
2021/10/15 12:56:17;;;;;;;3.55;2.35;;;9.70;67.80;;;;;;6184869;23;20162;-76
2021/10/15 12:59:02;;;;;;;4.88;3.28;;;9.70;68.20;;;;;;6184526;23;20009;-78
2021/10/15 13:01:33;;;;;;;4.28;2.58;;;9.80;69.10;;;;;;6185437;23;20008;-78
2021/10/15 13:04:01;;;;;;;4.38;2.72;;;9.90;69.40;;;;;;6185232;23;20432;-78
2021/10/15 13:06:27;;;;;;;;;;;10.10;69.00;;;;;;6159120;23;20001;-77
2021/10/15 13:08:54;;;;;;;3.83;2.50;;;10.10;68.60;;;;;;6182033;23;19955;-78
2021/10/15 13:11:24;;;;;;;6.95;3.00;;;10.00;68.20;;;;;;6184842;23;20008;-76
2021/10/15 13:13:51;;;;;;;3.17;2.35;;;9.90;68.80;;;;;;6183968;23;20024;-77
2021/10/15 13:16:17;;;;;;;;;;;9.80;68.80;;;;;;6185739;23;20444;-78
2021/10/15 13:18:43;;;;;;;4.05;2.00;;;9.80;69.40;;;;;;6185410;23;19906;-76